Time;durP1;ratioP1;P1;durP2;ratioP2;P2;SDS_P1;SDS_P2;PMS_P1;PMS_P2;Temp;Humidity;BMP_temperature;BMP_pressure;BME280_temperature;BME280_humidity;BME280_pressure;Samples;Min_cycle;Max_cycle;Signal;HPM_P1;HPM_P2
2023/04/22 00:01:09;;;;;;;13.45;12.15;;;;;;;;;;5068723;27;100158;-73
2023/04/22 00:03:35;;;;;;;14.80;13.40;;;;;;;;;;5067889;27;100003;-73
2023/04/22 00:06:02;;;;;;;13.43;12.07;;;;;;;;;;5069086;27;99450;-72
2023/04/22 00:08:28;;;;;;;15.43;13.40;;;;;;;;;;5068367;27;99855;-73
2023/04/22 00:10:55;;;;;;;14.38;12.88;;;;;;;;;;5067068;27;98268;-72
2023/04/22 00:13:22;;;;;;;15.50;13.43;;;;;;;;;;5067297;27;98510;-72
2023/04/22 00:15:48;;;;;;;14.38;12.90;;;;;;;;;;5068622;27;99356;-73
2023/04/22 00:18:15;;;;;;;15.27;13.65;;;;;;;;;;5071606;27;98310;-72
2023/04/22 00:20:44;;;;;;;21.95;14.20;;;;;;;;;;5068297;27;99969;-73
2023/04/22 00:23:12;;;;;;;19.52;14.75;;;;;;;;;;5068174;27;99906;-73
2023/04/22 00:25:39;;;;;;;16.67;13.93;;;;;;;;;;5067661;27;98765;-72
2023/04/22 00:28:05;;;;;;;15.45;14.00;;;;;;;;;;5068359;27;98875;-72
2023/04/22 00:30:32;;;;;;;16.00;14.40;;;;;;;;;;5068427;27;99647;-72
2023/04/22 00:32:58;;;;;;;16.17;14.50;;;;;;;;;;5068157;27;98257;-72
2023/04/22 00:35:25;;;;;;;17.38;15.57;;;;;;;;;;5067816;27;98680;-73
2023/04/22 00:37:51;;;;;;;22.08;17.05;;;;;;;;;;5069052;27;98276;-73
2023/04/22 00:40:18;;;;;;;19.50;16.85;;;;;;;;;;5070109;27;99563;-73
2023/04/22 00:42:45;;;;;;;20.23;15.77;;;;;;;;;;5069112;27;98211;-73
2023/04/22 00:45:13;;;;;;;17.23;15.40;;;;;;;;;;5069221;27;98277;-73
2023/04/22 00:47:40;;;;;;;19.70;15.48;;;;;;;;;;5067777;27;100014;-73
2023/04/22 00:50:07;;;;;;;16.80;15.20;;;;;;;;;;5067106;27;98220;-72
2023/04/22 00:52:34;;;;;;;18.42;15.50;;;;;;;;;;5068332;27;98469;-73
2023/04/22 00:55:00;;;;;;;17.27;15.40;;;;;;;;;;5068562;27;98927;-72
2023/04/22 00:57:28;;;;;;;21.13;15.85;;;;;;;;;;5066885;27;99374;-73
2023/04/22 00:59:55;;;;;;;18.48;16.52;;;;;;;;;;5066393;27;98432;-73
2023/04/22 01:02:21;;;;;;;17.98;15.52;;;;;;;;;;5070357;27;98789;-72
2023/04/22 01:04:48;;;;;;;19.90;15.85;;;;;;;;;;5068570;27;98349;-72
2023/04/22 01:07:14;;;;;;;16.65;14.93;;;;;;;;;;5064492;27;99241;-72
2023/04/22 01:09:41;;;;;;;17.48;15.77;;;;;;;;;;5066609;27;98709;-72
2023/04/22 01:12:08;;;;;;;16.67;14.05;;;;;;;;;;5068494;27;98397;-72
2023/04/22 01:14:34;;;;;;;17.17;15.05;;;;;;;;;;5065600;27;98146;-72
2023/04/22 01:17:01;;;;;;;16.73;14.93;;;;;;;;;;5068359;27;98268;-72
2023/04/22 01:19:28;;;;;;;15.68;14.07;;;;;;;;;;5067736;27;99305;-72
2023/04/22 01:21:55;;;;;;;16.33;14.60;;;;;;;;;;5067437;27;99952;-72
2023/04/22 01:24:21;;;;;;;14.45;13.05;;;;;;;;;;5070310;27;98387;-72
2023/04/22 01:26:48;;;;;;;13.80;12.55;;;;;;;;;;5068182;27;98871;-72
2023/04/22 01:29:14;;;;;;;16.45;13.15;;;;;;;;;;5067523;27;98336;-72
2023/04/22 01:31:41;;;;;;;16.55;14.65;;;;;;;;;;5068172;27;98354;-72
2023/04/22 01:34:07;;;;;;;16.15;14.55;;;;;;;;;;5068087;27;99210;-72
2023/04/22 01:36:34;;;;;;;16.25;13.02;;;;;;;;;;5065760;27;98305;-72
2023/04/22 01:39:00;;;;;;;14.95;13.50;;;;;;;;;;5068277;27;99375;-72
2023/04/22 01:41:26;;;;;;;16.10;14.30;;;;;;;;;;5066300;27;100598;-72
2023/04/22 01:43:54;;;;;;;15.50;13.77;;;;;;;;;;5067487;27;98237;-72
2023/04/22 01:46:20;;;;;;;14.65;13.10;;;;;;;;;;5069477;27;99801;-73
2023/04/22 01:48:50;;;;;;;19.00;15.38;;;;;;;;;;5065108;27;98247;-72
2023/04/22 01:51:19;;;;;;;16.05;13.48;;;;;;;;;;5069019;27;98587;-72
2023/04/22 01:53:49;;;;;;;15.75;14.18;;;;;;;;;;5070143;27;99832;-72
2023/04/22 01:56:15;;;;;;;17.75;15.90;;;;;;;;;;5070792;27;99176;-72
2023/04/22 01:58:42;;;;;;;16.42;14.07;;;;;;;;;;5068946;27;99948;-72
2023/04/22 02:01:09;;;;;;;19.88;15.05;;;;;;;;;;5071085;27;99067;-72
2023/04/22 02:03:36;;;;;;;17.40;15.55;;;;;;;;;;5070386;27;98290;-72
2023/04/22 02:06:03;;;;;;;16.95;15.15;;;;;;;;;;5074136;27;98244;-72
2023/04/22 02:08:29;;;;;;;15.10;13.60;;;;;;;;;;5070910;27;98262;-72
2023/04/22 02:10:57;;;;;;;16.88;14.85;;;;;;;;;;5070678;27;98301;-72
2023/04/22 02:13:23;;;;;;;16.17;14.52;;;;;;;;;;5068135;27;99225;-73
2023/04/22 02:15:50;;;;;;;15.32;13.75;;;;;;;;;;5069344;27;98172;-72
2023/04/22 02:18:17;;;;;;;15.75;14.10;;;;;;;;;;5069915;27;98393;-73
2023/04/22 02:20:44;;;;;;;15.27;13.85;;;;;;;;;;5070614;27;100164;-72
2023/04/22 02:23:10;;;;;;;16.77;15.13;;;;;;;;;;5070388;27;98802;-72
2023/04/22 02:25:37;;;;;;;16.63;14.77;;;;;;;;;;5069665;27;99424;-72
2023/04/22 02:28:03;;;;;;;15.90;14.35;;;;;;;;;;5074190;27;98842;-72
2023/04/22 02:30:30;;;;;;;16.20;14.50;;;;;;;;;;5071106;27;98575;-72
2023/04/22 02:32:56;;;;;;;14.70;13.30;;;;;;;;;;5061461;27;98703;-72
2023/04/22 02:35:25;;;;;;;14.98;13.55;;;;;;;;;;5065150;27;98332;-73
2023/04/22 02:37:51;;;;;;;17.25;15.43;;;;;;;;;;5069642;27;98554;-72
2023/04/22 02:40:20;;;;;;;17.02;15.18;;;;;;;;;;5065737;27;99838;-72
2023/04/22 02:42:47;;;;;;;17.63;15.82;;;;;;;;;;5068826;27;98349;-72
2023/04/22 02:45:13;;;;;;;17.88;15.98;;;;;;;;;;5069885;27;98726;-72
2023/04/22 02:47:41;;;;;;;15.95;14.23;;;;;;;;;;5069102;27;100001;-72
2023/04/22 02:50:08;;;;;;;15.88;14.25;;;;;;;;;;5072798;27;98367;-73
2023/04/22 02:52:35;;;;;;;16.85;15.07;;;;;;;;;;5069972;27;99530;-73
2023/04/22 02:55:01;;;;;;;16.85;15.07;;;;;;;;;;5069118;27;99070;-72
2023/04/22 02:57:28;;;;;;;16.63;14.63;;;;;;;;;;5070236;27;98274;-73
2023/04/22 02:59:55;;;;;;;16.52;14.82;;;;;;;;;;5069302;27;98905;-73
2023/04/22 03:02:22;;;;;;;15.35;13.88;;;;;;;;;;5067128;27;98463;-72
2023/04/22 03:05:00;;;;;;;16.70;15.00;;;;;;;;;;5069176;27;99045;-72
2023/04/22 03:07:28;;;;;;;15.82;14.15;;;;;;;;;;5067246;27;100886;-73
2023/04/22 03:09:55;;;;;;;18.55;16.10;;;;;;;;;;5069059;27;98438;-73
2023/04/22 03:12:23;;;;;;;20.13;16.50;;;;;;;;;;5072050;27;101112;-72
2023/04/22 03:14:50;;;;;;;17.52;15.73;;;;;;;;;;5068672;27;98622;-71
2023/04/22 03:17:18;;;;;;;19.70;15.88;;;;;;;;;;5068848;27;100915;-71
2023/04/22 03:19:45;;;;;;;19.05;16.58;;;;;;;;;;5069072;27;99946;-72
2023/04/22 03:22:13;;;;;;;18.30;15.30;;;;;;;;;;5068030;27;98805;-72
2023/04/22 03:24:40;;;;;;;17.52;15.73;;;;;;;;;;5068770;27;100643;-71
2023/04/22 03:27:08;;;;;;;19.58;17.13;;;;;;;;;;5066833;27;100989;-71
2023/04/22 03:29:35;;;;;;;17.80;15.75;;;;;;;;;;5068172;27;99631;-73
2023/04/22 03:32:01;;;;;;;19.83;15.98;;;;;;;;;;5068440;27;98603;-72
2023/04/22 03:34:28;;;;;;;20.25;16.70;;;;;;;;;;5070346;27;99147;-72
2023/04/22 03:36:55;;;;;;;17.05;15.25;;;;;;;;;;5068598;27;98666;-72
2023/04/22 03:39:21;;;;;;;17.08;15.32;;;;;;;;;;5067657;27;101162;-72
2023/04/22 03:41:47;;;;;;;17.52;15.40;;;;;;;;;;5067827;27;98264;-72
2023/04/22 03:44:14;;;;;;;18.02;15.23;;;;;;;;;;5068676;27;98613;-72
2023/04/22 03:46:42;;;;;;;17.20;15.40;;;;;;;;;;5068271;27;101125;-72
2023/04/22 03:49:16;;;;;;;16.27;14.57;;;;;;;;;;5067199;27;98467;-72
2023/04/22 03:51:43;;;;;;;16.67;14.95;;;;;;;;;;5067725;27;98779;-72
2023/04/22 03:54:14;;;;;;;16.67;14.77;;;;;;;;;;5067933;27;101036;-72
2023/04/22 03:56:46;;;;;;;17.00;14.95;;;;;;;;;;5070803;27;98199;-72
2023/04/22 03:59:13;;;;;;;16.48;14.77;;;;;;;;;;5068015;27;98923;-72
2023/04/22 04:01:40;;;;;;;18.20;15.50;;;;;;;;;;5067494;27;98288;-72
2023/04/22 04:04:08;;;;;;;16.30;14.60;;;;;;;;;;5067690;27;100818;-72
2023/04/22 04:06:48;;;;;;;17.17;15.35;;;;;;;;;;5060544;27;101937;-72
2023/04/22 04:09:15;;;;;;;18.30;16.33;;;;;;;;;;5067542;27;99221;-72
2023/04/22 04:11:42;;;;;;;16.45;14.85;;;;;;;;;;5068975;27;98897;-72
2023/04/22 04:14:09;;;;;;;18.15;15.23;;;;;;;;;;5067601;27;100917;-72
2023/04/22 04:16:41;;;;;;;17.02;15.32;;;;;;;;;;5069549;27;99916;-72
2023/04/22 04:19:13;;;;;;;19.48;16.55;;;;;;;;;;5067656;27;102720;-72
2023/04/22 04:21:41;;;;;;;17.67;15.48;;;;;;;;;;5066784;27;99945;-72
2023/04/22 04:24:08;;;;;;;17.17;15.48;;;;;;;;;;5067167;27;99489;-72
2023/04/22 04:26:41;;;;;;;16.88;15.18;;;;;;;;;;5067645;27;98976;-73
2023/04/22 04:29:12;;;;;;;15.33;13.63;;;;;;;;;;5067840;27;98335;-71
2023/04/22 04:31:43;;;;;;;16.60;15.00;;;;;;;;;;5066615;27;100384;-72
2023/04/22 04:34:10;;;;;;;16.95;15.25;;;;;;;;;;5067817;27;101759;-72
2023/04/22 04:36:38;;;;;;;17.92;15.40;;;;;;;;;;5067680;27;98355;-72
2023/04/22 04:39:31;;;;;;;21.70;16.67;;;;;;;;;;5039034;27;98291;-72
2023/04/22 04:42:00;;;;;;;17.60;14.80;;;;;;;;;;5058751;27;98199;-72
2023/04/22 04:44:30;;;;;;;16.45;14.82;;;;;;;;;;5066792;27;101172;-73
2023/04/22 04:46:57;;;;;;;17.52;15.77;;;;;;;;;;5067210;27;100082;-71
2023/04/22 04:49:24;;;;;;;16.75;14.75;;;;;;;;;;5067166;27;98260;-71
2023/04/22 04:51:56;;;;;;;15.35;13.75;;;;;;;;;;5066715;27;100695;-73
2023/04/22 04:54:24;;;;;;;15.82;14.30;;;;;;;;;;5066801;27;101882;-72
2023/04/22 04:56:51;;;;;;;15.60;13.95;;;;;;;;;;5066680;27;98312;-71
2023/04/22 04:59:17;;;;;;;15.50;13.90;;;;;;;;;;5067727;27;99475;-71
2023/04/22 05:01:44;;;;;;;15.43;13.73;;;;;;;;;;5071421;27;100254;-73
2023/04/22 05:04:11;;;;;;;15.55;13.95;;;;;;;;;;5066691;27;100629;-71
2023/04/22 05:06:40;;;;;;;15.63;13.95;;;;;;;;;;5067005;27;102169;-71
2023/04/22 05:09:06;;;;;;;15.00;13.48;;;;;;;;;;5066892;27;98339;-71
2023/04/22 05:11:35;;;;;;;15.38;13.88;;;;;;;;;;5068206;27;99710;-72
2023/04/22 05:14:08;;;;;;;14.25;12.82;;;;;;;;;;5065629;27;100779;-72
2023/04/22 05:16:39;;;;;;;16.00;14.40;;;;;;;;;;5066009;27;98292;-73
2023/04/22 05:19:07;;;;;;;15.57;14.18;;;;;;;;;;5067074;27;100531;-73
2023/04/22 05:21:34;;;;;;;16.52;14.65;;;;;;;;;;5064724;27;101209;-71
2023/04/22 05:24:01;;;;;;;17.02;14.20;;;;;;;;;;5072060;27;99122;-71
2023/04/22 05:26:28;;;;;;;16.10;14.50;;;;;;;;;;5065938;27;99014;-72
2023/04/22 05:28:54;;;;;;;17.27;15.35;;;;;;;;;;5065892;27;98262;-71
2023/04/22 05:31:21;;;;;;;19.85;16.05;;;;;;;;;;5064841;27;101032;-71
2023/04/22 05:33:47;;;;;;;19.38;16.90;;;;;;;;;;5065185;27;101572;-71
2023/04/22 05:36:14;;;;;;;17.25;15.43;;;;;;;;;;5066472;27;98794;-71
2023/04/22 05:38:42;;;;;;;17.38;15.65;;;;;;;;;;5067606;27;98558;-71
2023/04/22 05:41:08;;;;;;;20.73;16.98;;;;;;;;;;5062430;27;101930;-71
2023/04/22 05:43:35;;;;;;;20.20;16.55;;;;;;;;;;5058770;27;98769;-70
2023/04/22 05:46:07;;;;;;;26.55;18.15;;;;;;;;;;5069104;27;100606;-71
2023/04/22 05:48:36;;;;;;;20.15;15.93;;;;;;;;;;5065990;27;98477;-73
2023/04/22 05:51:06;;;;;;;20.30;18.05;;;;;;;;;;5064913;27;101089;-72
2023/04/22 05:53:34;;;;;;;19.55;16.75;;;;;;;;;;5067388;27;99847;-72
2023/04/22 05:56:01;;;;;;;20.50;18.27;;;;;;;;;;5064472;27;98430;-73
2023/04/22 05:58:27;;;;;;;20.67;18.05;;;;;;;;;;5065973;27;100390;-72
2023/04/22 06:00:59;;;;;;;25.48;18.33;;;;;;;;;;5066695;27;98880;-72
2023/04/22 06:03:43;;;;;;;21.27;17.63;;;;;;;;;;5060742;27;98154;-72
2023/04/22 06:06:11;;;;;;;22.45;19.00;;;;;;;;;;5060638;27;101005;-72
2023/04/22 06:08:37;;;;;;;25.65;19.17;;;;;;;;;;5067227;27;98976;-72
2023/04/22 06:11:04;;;;;;;27.25;19.70;;;;;;;;;;5063949;27;101085;-72
2023/04/22 06:13:33;;;;;;;23.13;18.63;;;;;;;;;;5065795;27;101595;-72
2023/04/22 06:16:00;;;;;;;23.27;18.42;;;;;;;;;;5066959;27;98604;-73
2023/04/22 06:18:27;;;;;;;26.70;19.85;;;;;;;;;;5056195;27;100754;-72
2023/04/22 06:20:54;;;;;;;27.65;20.90;;;;;;;;;;5064318;27;98855;-72
2023/04/22 06:23:21;;;;;;;25.42;21.50;;;;;;;;;;5062168;27;98212;-72
2023/04/22 06:25:50;;;;;;;23.75;20.90;;;;;;;;;;5066763;27;98536;-73
2023/04/22 06:28:17;;;;;;;24.15;20.23;;;;;;;;;;5070147;27;101068;-72
2023/04/22 06:30:45;;;;;;;26.00;20.75;;;;;;;;;;5058995;27;99370;-71
2023/04/22 06:33:12;;;;;;;25.85;21.42;;;;;;;;;;5064902;27;100039;-72
2023/04/22 06:35:38;;;;;;;27.73;22.20;;;;;;;;;;5059376;27;98288;-74
2023/04/22 06:38:05;;;;;;;26.70;22.88;;;;;;;;;;5066014;27;99698;-73
2023/04/22 06:40:40;;;;;;;28.35;23.38;;;;;;;;;;5063198;27;101264;-72
2023/04/22 06:43:21;;;;;;;32.17;26.50;;;;;;;;;;5068163;27;98291;-71
2023/04/22 06:46:19;;;;;;;33.05;23.23;;;;;;;;;;5063486;27;99354;-71
2023/04/22 06:48:46;;;;;;;32.55;24.75;;;;;;;;;;5065864;27;98686;-71
2023/04/22 06:51:38;;;;;;;27.23;24.30;;;;;;;;;;5069474;27;98351;-71
2023/04/22 06:54:06;;;;;;;32.80;25.02;;;;;;;;;;5063668;27;101335;-72
2023/04/22 06:56:32;;;;;;;20.00;17.85;;;;;;;;;;5065314;27;98339;-72
2023/04/22 06:58:59;;;;;;;26.98;22.13;;;;;;;;;;5062544;27;100302;-71
2023/04/22 07:01:27;;;;;;;27.35;24.30;;;;;;;;;;5066914;27;101064;-71
2023/04/22 07:03:54;;;;;;;30.75;24.60;;;;;;;;;;5069227;27;98251;-71
2023/04/22 07:06:21;;;;;;;26.63;23.63;;;;;;;;;;5064443;27;99336;-70
2023/04/22 07:08:48;;;;;;;29.13;23.88;;;;;;;;;;5059669;27;102583;-70
2023/04/22 07:11:14;;;;;;;26.25;23.52;;;;;;;;;;5065017;27;99729;-71
2023/04/22 07:13:55;;;;;;;27.65;24.65;;;;;;;;;;5071410;27;101123;-69
2023/04/22 07:16:22;;;;;;;28.13;25.05;;;;;;;;;;5061380;27;98380;-71
2023/04/22 07:18:49;;;;;;;29.80;24.63;;;;;;;;;;5062967;27;98545;-71
2023/04/22 07:21:16;;;;;;;27.85;24.88;;;;;;;;;;5068547;27;99960;-70
2023/04/22 07:23:42;;;;;;;30.67;23.90;;;;;;;;;;5069788;27;98267;-71
2023/04/22 07:26:08;;;;;;;32.97;25.02;;;;;;;;;;5065128;27;99482;-70
2023/04/22 07:28:35;;;;;;;25.83;23.15;;;;;;;;;;5065906;27;99987;-70
2023/04/22 07:31:01;;;;;;;29.50;23.65;;;;;;;;;;5061821;27;98353;-70
2023/04/22 07:33:28;;;;;;;25.35;22.75;;;;;;;;;;5068945;27;99366;-71
2023/04/22 07:35:54;;;;;;;34.30;23.55;;;;;;;;;;5072119;27;99868;-71
2023/04/22 07:38:20;;;;;;;16.20;14.18;;;;;;;;;;5062938;27;98784;-71
2023/04/22 07:40:47;;;;;;;25.80;22.52;;;;;;;;;;5065526;27;99074;-72
2023/04/22 07:43:13;;;;;;;25.88;23.00;;;;;;;;;;5061391;27;102766;-72
2023/04/22 07:45:39;;;;;;;25.30;22.60;;;;;;;;;;5065677;27;100961;-72
2023/04/22 07:48:06;;;;;;;26.27;22.30;;;;;;;;;;5066714;27;99024;-72
2023/04/22 07:50:32;;;;;;;32.65;23.77;;;;;;;;;;5064645;27;98303;-72
2023/04/22 07:52:59;;;;;;;26.60;23.10;;;;;;;;;;5069543;27;99450;-72
2023/04/22 07:55:25;;;;;;;28.58;22.00;;;;;;;;;;5065315;27;100427;-73
2023/04/22 07:57:52;;;;;;;26.42;23.70;;;;;;;;;;5070060;27;98310;-72
2023/04/22 08:00:18;;;;;;;23.95;21.38;;;;;;;;;;5065600;27;99998;-72
2023/04/22 08:02:46;;;;;;;25.33;22.52;;;;;;;;;;5066445;27;98432;-72
2023/04/22 08:05:12;;;;;;;27.00;21.90;;;;;;;;;;5068815;27;98922;-72
2023/04/22 08:07:39;;;;;;;25.10;22.20;;;;;;;;;;5066080;27;99850;-72
2023/04/22 08:10:06;;;;;;;24.50;21.98;;;;;;;;;;5067681;27;98392;-70
2023/04/22 08:12:32;;;;;;;26.10;22.77;;;;;;;;;;5067238;27;99206;-70
2023/04/22 08:14:58;;;;;;;24.33;21.92;;;;;;;;;;5068658;27;99910;-70
2023/04/22 08:17:25;;;;;;;25.85;23.20;;;;;;;;;;5069626;27;98445;-70
2023/04/22 08:19:52;;;;;;;23.95;21.50;;;;;;;;;;5068052;27;98918;-70
2023/04/22 08:22:18;;;;;;;24.38;21.73;;;;;;;;;;5067076;27;98251;-71
2023/04/22 08:24:44;;;;;;;22.83;19.52;;;;;;;;;;5064909;27;98743;-71
2023/04/22 08:27:11;;;;;;;21.55;19.30;;;;;;;;;;5058063;27;99878;-71
2023/04/22 08:29:37;;;;;;;18.98;17.08;;;;;;;;;;5065287;27;98467;-71
2023/04/22 08:32:04;;;;;;;18.83;16.98;;;;;;;;;;5067850;27;99371;-70
2023/04/22 08:34:31;;;;;;;17.98;16.33;;;;;;;;;;5066064;27;99434;-71
2023/04/22 08:36:57;;;;;;;18.27;16.48;;;;;;;;;;5066355;27;100064;-70
2023/04/22 08:39:24;;;;;;;18.45;16.58;;;;;;;;;;5068203;27;99742;-71
2023/04/22 08:41:50;;;;;;;18.20;16.50;;;;;;;;;;5063914;27;99158;-72
2023/04/22 08:44:17;;;;;;;18.83;17.10;;;;;;;;;;5063440;27;99571;-72
2023/04/22 08:46:47;;;;;;;20.45;17.45;;;;;;;;;;5063285;27;99363;-71
2023/04/22 08:49:14;;;;;;;19.13;17.05;;;;;;;;;;5065285;27;98372;-72
2023/04/22 08:51:41;;;;;;;19.63;17.55;;;;;;;;;;5066686;27;98994;-71
2023/04/22 08:54:07;;;;;;;20.17;16.85;;;;;;;;;;5065681;27;99138;-71
2023/04/22 08:56:35;;;;;;;18.77;16.88;;;;;;;;;;5064807;27;99588;-71
2023/04/22 08:59:02;;;;;;;18.17;16.30;;;;;;;;;;5066570;27;98586;-71
2023/04/22 09:01:30;;;;;;;18.98;16.77;;;;;;;;;;5067735;27;98927;-71
2023/04/22 09:03:58;;;;;;;18.38;16.55;;;;;;;;;;5064254;27;98645;-71
2023/04/22 09:06:26;;;;;;;17.30;15.70;;;;;;;;;;5064186;27;99484;-71
2023/04/22 09:08:53;;;;;;;16.77;15.18;;;;;;;;;;5064905;27;99373;-71
2023/04/22 09:11:20;;;;;;;17.23;15.45;;;;;;;;;;5063424;27;98693;-72
2023/04/22 09:13:46;;;;;;;16.05;14.55;;;;;;;;;;5064976;27;99108;-71
2023/04/22 09:16:13;;;;;;;17.25;15.45;;;;;;;;;;5058809;27;98159;-71
2023/04/22 09:18:44;;;;;;;13.40;12.05;;;;;;;;;;5067791;27;99953;-71
2023/04/22 09:21:11;;;;;;;11.37;10.37;;;;;;;;;;5064854;27;99502;-71
2023/04/22 09:23:50;;;;;;;11.95;10.80;;;;;;;;;;5067243;27;98896;-71
2023/04/22 09:26:23;;;;;;;12.05;10.90;;;;;;;;;;5062619;27;99286;-72
2023/04/22 09:28:50;;;;;;;10.82;9.93;;;;;;;;;;5066555;27;98267;-71
2023/04/22 09:31:17;;;;;;;12.02;10.93;;;;;;;;;;5066432;27;99541;-72
2023/04/22 09:33:47;;;;;;;11.88;10.38;;;;;;;;;;5065842;27;98834;-72
2023/04/22 09:36:15;;;;;;;11.48;10.57;;;;;;;;;;5064593;27;99490;-72
2023/04/22 09:38:52;;;;;;;12.02;10.80;;;;;;;;;;5056853;27;99689;-71
2023/04/22 09:41:25;;;;;;;12.20;11.07;;;;;;;;;;5060419;27;99403;-72
2023/04/22 09:43:53;;;;;;;11.82;10.65;;;;;;;;;;5059500;27;98604;-72
2023/04/22 09:46:21;;;;;;;12.52;10.95;;;;;;;;;;5059112;27;98495;-71
2023/04/22 09:48:48;;;;;;;15.32;11.98;;;;;;;;;;5057414;27;99307;-71
2023/04/22 09:51:18;;;;;;;25.80;12.50;;;;;;;;;;5064907;27;98849;-72
2023/04/22 09:53:55;;;;;;;13.60;11.75;;;;;;;;;;5059977;27;99182;-72
2023/04/22 09:56:22;;;;;;;12.13;11.00;;;;;;;;;;5066600;27;98232;-72
2023/04/22 09:58:51;;;;;;;13.55;11.75;;;;;;;;;;5063911;27;98802;-71
2023/04/22 10:01:18;;;;;;;13.50;12.23;;;;;;;;;;5065493;27;99003;-73
2023/04/22 10:03:44;;;;;;;13.55;11.88;;;;;;;;;;5063991;27;99321;-72
2023/04/22 10:06:11;;;;;;;14.43;12.20;;;;;;;;;;5066501;27;99032;-72
2023/04/22 10:08:38;;;;;;;17.02;13.63;;;;;;;;;;5067683;27;98956;-72
2023/04/22 10:11:04;;;;;;;14.18;12.82;;;;;;;;;;5061410;27;99940;-72
2023/04/22 10:13:31;;;;;;;14.07;12.73;;;;;;;;;;5058474;27;99111;-72
2023/04/22 10:15:59;;;;;;;14.57;13.07;;;;;;;;;;5067525;27;98216;-72
2023/04/22 10:18:26;;;;;;;14.82;13.35;;;;;;;;;;5067232;27;99605;-71
2023/04/22 10:20:54;;;;;;;13.40;12.10;;;;;;;;;;5070728;27;100221;-72
2023/04/22 10:23:22;;;;;;;13.30;12.05;;;;;;;;;;5065076;27;99901;-72
2023/04/22 10:25:52;;;;;;;12.68;11.65;;;;;;;;;;5058094;27;98748;-73
2023/04/22 10:28:21;;;;;;;14.07;12.57;;;;;;;;;;5068888;27;99119;-72
2023/04/22 10:30:47;;;;;;;13.52;12.23;;;;;;;;;;5068482;27;98500;-73
2023/04/22 10:33:27;;;;;;;13.90;12.57;;;;;;;;;;5064002;27;99588;-73
2023/04/22 10:36:10;;;;;;;13.75;12.35;;;;;;;;;;5065440;27;98372;-72
2023/04/22 10:38:40;;;;;;;13.38;12.00;;;;;;;;;;5067892;27;99296;-72
2023/04/22 10:41:12;;;;;;;15.70;11.95;;;;;;;;;;5068924;27;99451;-72
2023/04/22 10:43:45;;;;;;;13.68;12.45;;;;;;;;;;5069686;27;98221;-72
2023/04/22 10:46:38;;;;;;;12.32;11.13;;;;;;;;;;5070239;27;98674;-73
2023/04/22 10:49:06;;;;;;;13.10;11.85;;;;;;;;;;5064163;27;98641;-72
2023/04/22 10:51:41;;;;;;;17.88;12.32;;;;;;;;;;5068747;27;98509;-72
2023/04/22 10:54:35;;;;;;;15.05;12.27;;;;;;;;;;5066815;27;99900;-72
2023/04/22 10:57:04;;;;;;;15.07;12.00;;;;;;;;;;5059733;27;98448;-72
2023/04/22 10:59:32;;;;;;;13.15;12.00;;;;;;;;;;5064814;27;99313;-72
2023/04/22 11:02:04;;;;;;;16.13;11.82;;;;;;;;;;5058832;27;98992;-73
2023/04/22 11:04:32;;;;;;;13.20;11.98;;;;;;;;;;5057859;27;98321;-72
2023/04/22 11:07:16;;;;;;;12.98;11.77;;;;;;;;;;5065913;27;98606;-73
2023/04/22 11:09:45;;;;;;;13.00;11.80;;;;;;;;;;5055649;27;99919;-73
2023/04/22 11:12:31;;;;;;;15.60;12.55;;;;;;;;;;5069341;27;98330;-73
2023/04/22 11:14:59;;;;;;;12.27;11.27;;;;;;;;;;5072876;27;99484;-72
2023/04/22 11:17:26;;;;;;;12.43;11.07;;;;;;;;;;5069323;27;98292;-73
2023/04/22 11:19:55;;;;;;;13.60;12.30;;;;;;;;;;5068278;27;98468;-72
2023/04/22 11:22:22;;;;;;;13.32;11.90;;;;;;;;;;5069110;27;100003;-72
2023/04/22 11:24:53;;;;;;;13.32;12.07;;;;;;;;;;5069306;27;98264;-72
2023/04/22 11:27:25;;;;;;;13.60;11.23;;;;;;;;;;5067518;27;99363;-72
2023/04/22 11:29:58;;;;;;;11.05;10.13;;;;;;;;;;5069938;27;99562;-71
2023/04/22 11:32:25;;;;;;;10.95;9.75;;;;;;;;;;5061419;27;100275;-71
2023/04/22 11:34:54;;;;;;;11.80;10.55;;;;;;;;;;5060534;27;98420;-71
2023/04/22 11:37:24;;;;;;;11.18;10.27;;;;;;;;;;5072115;27;100132;-72
2023/04/22 11:39:51;;;;;;;12.82;11.60;;;;;;;;;;5069392;27;99398;-72
2023/04/22 11:42:37;;;;;;;14.60;12.52;;;;;;;;;;5067067;27;98915;-72
2023/04/22 11:45:04;;;;;;;13.63;12.43;;;;;;;;;;5068850;27;98240;-72
2023/04/22 11:47:33;;;;;;;13.93;12.63;;;;;;;;;;5068054;27;98799;-72
2023/04/22 11:50:05;;;;;;;14.65;13.15;;;;;;;;;;5061178;27;99153;-72
2023/04/22 11:52:41;;;;;;;18.60;13.98;;;;;;;;;;5065152;27;99665;-72
2023/04/22 11:55:10;;;;;;;15.65;14.05;;;;;;;;;;5068466;27;98901;-72
2023/04/22 11:57:36;;;;;;;17.95;15.73;;;;;;;;;;5068591;27;99270;-78
2023/04/22 12:00:03;;;;;;;18.17;16.48;;;;;;;;;;5072412;27;98303;-72
2023/04/22 12:02:30;;;;;;;18.90;17.00;;;;;;;;;;5061629;27;98515;-71
2023/04/22 12:04:57;;;;;;;19.25;17.55;;;;;;;;;;5069306;27;98698;-71
2023/04/22 12:07:26;;;;;;;20.25;18.27;;;;;;;;;;5068864;27;99722;-71
2023/04/22 12:09:53;;;;;;;17.83;16.10;;;;;;;;;;5067659;27;100219;-72
2023/04/22 12:12:23;;;;;;;18.38;16.50;;;;;;;;;;5068743;27;98299;-71
2023/04/22 12:14:49;;;;;;;19.50;16.52;;;;;;;;;;5060792;27;99388;-71
2023/04/22 12:17:21;;;;;;;18.42;16.58;;;;;;;;;;5068831;27;99024;-71
2023/04/22 12:19:47;;;;;;;18.00;16.17;;;;;;;;;;5061249;27;98984;-71
2023/04/22 12:22:26;;;;;;;17.90;16.20;;;;;;;;;;5071534;27;100031;-71
2023/04/22 12:24:53;;;;;;;17.75;15.85;;;;;;;;;;5061472;27;98376;-71
2023/04/22 12:27:20;;;;;;;17.02;15.10;;;;;;;;;;5068790;27;99552;-72
2023/04/22 12:29:53;;;;;;;17.77;16.02;;;;;;;;;;5067840;27;99997;-71
2023/04/22 12:32:20;;;;;;;18.33;16.52;;;;;;;;;;5059918;27;98316;-71
2023/04/22 12:34:50;;;;;;;17.98;16.35;;;;;;;;;;5068153;27;99585;-71
2023/04/22 12:37:16;;;;;;;17.55;15.85;;;;;;;;;;5067765;27;100104;-71
2023/04/22 12:39:43;;;;;;;17.90;15.98;;;;;;;;;;5068554;27;98236;-71
2023/04/22 12:42:10;;;;;;;16.83;15.20;;;;;;;;;;5071487;27;98891;-71
2023/04/22 12:44:36;;;;;;;17.02;15.27;;;;;;;;;;5067091;27;98295;-71
2023/04/22 12:47:02;;;;;;;18.58;16.77;;;;;;;;;;5068301;27;98568;-71
2023/04/22 12:49:29;;;;;;;17.33;15.60;;;;;;;;;;5070296;27;99105;-71
2023/04/22 12:51:55;;;;;;;18.05;16.25;;;;;;;;;;5067590;27;98103;-71
2023/04/22 12:54:22;;;;;;;17.55;15.85;;;;;;;;;;5068276;27;98611;-71
2023/04/22 12:56:49;;;;;;;17.55;15.85;;;;;;;;;;5066854;27;99038;-71
2023/04/22 12:59:15;;;;;;;18.35;16.60;;;;;;;;;;5067947;27;99110;-72
2023/04/22 13:01:41;;;;;;;18.40;16.50;;;;;;;;;;5067510;27;98113;-72
2023/04/22 13:04:08;;;;;;;17.17;15.40;;;;;;;;;;5070394;27;99136;-71
2023/04/22 13:06:36;;;;;;;20.10;16.85;;;;;;;;;;5068148;27;99688;-72
2023/04/22 13:09:02;;;;;;;22.92;17.88;;;;;;;;;;5067412;27;98956;-72
2023/04/22 13:11:29;;;;;;;22.30;20.00;;;;;;;;;;5067376;27;98235;-72
2023/04/22 13:13:55;;;;;;;20.30;18.27;;;;;;;;;;5067684;27;98929;-71
2023/04/22 13:16:21;;;;;;;22.08;19.80;;;;;;;;;;5067758;27;98902;-72
2023/04/22 13:18:48;;;;;;;23.58;20.90;;;;;;;;;;5067118;27;98308;-71
2023/04/22 13:21:15;;;;;;;22.90;20.65;;;;;;;;;;5067736;27;98868;-72
2023/04/22 13:23:42;;;;;;;23.95;21.55;;;;;;;;;;5066528;27;98977;-72
2023/04/22 13:26:08;;;;;;;22.25;20.05;;;;;;;;;;5070406;27;98075;-72
2023/04/22 13:28:35;;;;;;;23.27;21.13;;;;;;;;;;5066952;27;98920;-71
2023/04/22 13:31:01;;;;;;;28.75;22.15;;;;;;;;;;5067178;27;98374;-71
2023/04/22 13:33:27;;;;;;;26.15;23.48;;;;;;;;;;5066558;27;99752;-71
2023/04/22 13:35:54;;;;;;;34.17;22.58;;;;;;;;;;5067414;27;98878;-72
2023/04/22 13:38:20;;;;;;;23.30;21.00;;;;;;;;;;5067256;27;98048;-72
2023/04/22 13:40:47;;;;;;;24.40;20.50;;;;;;;;;;5067705;27;99611;-71
2023/04/22 13:43:13;;;;;;;25.17;22.52;;;;;;;;;;5065202;27;100717;-72
2023/04/22 13:45:41;;;;;;;26.17;23.15;;;;;;;;;;5067251;27;98229;-71
2023/04/22 13:48:07;;;;;;;26.77;22.95;;;;;;;;;;5072686;27;99008;-72
2023/04/22 13:50:34;;;;;;;26.15;23.52;;;;;;;;;;5066423;27;98415;-71
2023/04/22 13:53:02;;;;;;;24.30;21.45;;;;;;;;;;5067766;27;99361;-71
2023/04/22 13:55:28;;;;;;;24.88;22.25;;;;;;;;;;5068369;27;100177;-73
2023/04/22 13:57:55;;;;;;;24.25;21.98;;;;;;;;;;5068542;27;99212;-71
2023/04/22 14:00:22;;;;;;;25.92;23.45;;;;;;;;;;5067616;27;99627;-72
2023/04/22 14:02:48;;;;;;;26.48;22.67;;;;;;;;;;5070788;27;100026;-71
2023/04/22 14:05:15;;;;;;;24.90;22.48;;;;;;;;;;5070379;27;99360;-72
2023/04/22 14:07:42;;;;;;;25.08;22.60;;;;;;;;;;5056753;27;98687;-71
2023/04/22 14:10:10;;;;;;;25.23;22.67;;;;;;;;;;5069701;27;100929;-72
2023/04/22 14:12:37;;;;;;;27.50;23.98;;;;;;;;;;5067242;27;98534;-71
2023/04/22 14:15:05;;;;;;;26.35;23.63;;;;;;;;;;5065385;27;100238;-71
2023/04/22 14:17:31;;;;;;;25.05;22.70;;;;;;;;;;5062126;27;98326;-73
2023/04/22 14:19:58;;;;;;;25.10;22.70;;;;;;;;;;5070592;27;98813;-72